createdAt,value
2023-03-18T00:00:28.881Z,-3.99
2023-03-18T00:05:34.647Z,-4.01
2023-03-18T00:10:38.135Z,-4.03
2023-03-18T00:15:41.592Z,-4.09
2023-03-18T00:20:46.482Z,-3.99
2023-03-18T00:25:50.324Z,-4.05
2023-03-18T00:30:54.129Z,-4.04
2023-03-18T00:35:59.986Z,-4.01
2023-03-18T00:41:11.197Z,-4.01
2023-03-18T00:46:16.853Z,-4.04
2023-03-18T00:51:23.422Z,-4.00
2023-03-18T00:56:28.826Z,-3.93
2023-03-18T01:01:32.327Z,-3.92
2023-03-18T01:06:38.843Z,-3.88
2023-03-18T01:11:42.286Z,-3.91
2023-03-18T01:16:47.036Z,-3.94
2023-03-18T01:21:51.841Z,-3.92
2023-03-18T01:26:55.513Z,-3.96
2023-03-18T01:31:58.940Z,-3.90
2023-03-18T01:37:04.078Z,-3.88
2023-03-18T01:42:07.700Z,-3.83
2023-03-18T01:47:11.899Z,-3.82
2023-03-18T01:52:20.652Z,-3.76
2023-03-18T01:57:25.003Z,-3.80
2023-03-18T02:02:29.265Z,-3.80
2023-03-18T02:07:36.430Z,-3.91
2023-03-18T02:12:41.512Z,-3.90
2023-03-18T02:17:49.301Z,-3.81
2023-03-18T02:22:59.171Z,-3.82
2023-03-18T02:28:08.014Z,-3.78
2023-03-18T02:33:12.673Z,-3.79
2023-03-18T02:38:16.540Z,-3.75
2023-03-18T02:43:24.736Z,-3.77
2023-03-18T02:48:33.560Z,-3.81
2023-03-18T02:53:37.556Z,-3.82
2023-03-18T02:58:43.713Z,-3.74
2023-03-18T03:03:47.087Z,-3.74
2023-03-18T03:08:50.570Z,-3.78
2023-03-18T03:13:55.875Z,-3.90
2023-03-18T03:18:59.656Z,-3.95
2023-03-18T03:24:04.248Z,-3.99
2023-03-18T03:29:09.156Z,-4.12
2023-03-18T03:34:12.787Z,-4.23
2023-03-18T03:39:16.314Z,-4.34
2023-03-18T03:44:21.346Z,-4.36
2023-03-18T03:49:24.859Z,-4.45
2023-03-18T03:54:28.218Z,-4.48
2023-03-18T03:59:33.063Z,-4.40
2023-03-18T04:04:37.819Z,-1.31
2023-03-18T04:09:41.315Z,0.65
2023-03-18T04:14:48.012Z,-1.45
2023-03-18T04:19:51.458Z,-2.46
2023-03-18T04:24:54.929Z,-3.04
2023-03-18T04:29:59.817Z,-3.14
2023-03-18T04:35:03.524Z,-3.27
2023-03-18T04:40:08.178Z,-3.23
2023-03-18T04:45:14.366Z,-3.14
2023-03-18T04:50:18.041Z,-3.07
2023-03-18T04:55:22.110Z,-2.92
2023-03-18T05:00:27.979Z,0.19
2023-03-18T05:05:32.885Z,3.69
2023-03-18T05:10:36.459Z,2.77
2023-03-18T05:15:41.446Z,9.03
2023-03-18T05:20:44.946Z,13.35
2023-03-18T05:25:50.897Z,15.15
2023-03-18T05:30:55.883Z,17.75
2023-03-18T05:35:59.110Z,20.10
2023-03-18T05:41:02.616Z,20.53
2023-03-18T05:46:07.519Z,21.44
2023-03-18T05:51:11.342Z,20.94
2023-03-18T05:56:15.626Z,21.93
2023-03-18T06:01:22.062Z,17.08
2023-03-18T06:06:25.474Z,13.71
2023-03-18T06:11:29.575Z,11.29
2023-03-18T06:16:35.468Z,15.53
2023-03-18T06:21:39.023Z,19.23
2023-03-18T06:26:42.761Z,23.69
2023-03-18T06:31:47.644Z,25.81
2023-03-18T06:36:51.137Z,27.16
2023-03-18T06:41:55.258Z,29.80
2023-03-18T06:46:59.982Z,27.09
2023-03-18T06:52:03.884Z,29.50
2023-03-18T06:57:07.838Z,31.89
2023-03-18T07:02:13.188Z,30.24
2023-03-18T07:07:16.870Z,31.45
2023-03-18T07:12:20.320Z,32.82
2023-03-18T07:17:25.349Z,33.03
2023-03-18T07:22:29.329Z,33.18
2023-03-18T07:27:34.942Z,30.20
2023-03-18T07:32:39.848Z,31.97
2023-03-18T07:37:43.707Z,33.80
2023-03-18T07:42:47.161Z,33.02
2023-03-18T07:47:52.088Z,32.25
2023-03-18T07:52:55.486Z,30.83
2023-03-18T07:57:58.850Z,30.27
2023-03-18T08:03:04.065Z,31.09
2023-03-18T08:08:07.865Z,29.09
2023-03-18T08:13:11.409Z,30.54
2023-03-18T08:18:16.390Z,31.48
2023-03-18T08:23:20.158Z,30.05
2023-03-18T08:28:23.842Z,29.68
2023-03-18T08:33:29.415Z,29.32
2023-03-18T08:38:32.968Z,28.00
2023-03-18T08:43:38.879Z,24.58
2023-03-18T08:48:44.035Z,23.78
2023-03-18T08:53:47.489Z,20.86
2023-03-18T08:58:51.297Z,17.78
2023-03-18T09:03:58.114Z,15.39
2023-03-18T09:09:01.543Z,13.29
2023-03-18T09:14:04.898Z,11.76
2023-03-18T09:19:09.834Z,11.06
2023-03-18T09:24:13.363Z,10.41
2023-03-18T09:29:16.927Z,9.48
2023-03-18T09:34:21.913Z,9.18
2023-03-18T09:39:25.012Z,8.44
2023-03-18T09:44:33.818Z,8.01
2023-03-18T09:49:48.466Z,8.21
2023-03-18T09:54:58.922Z,8.25
2023-03-18T10:00:09.329Z,8.30
2023-03-18T10:05:19.362Z,7.71
2023-03-18T10:10:27.357Z,7.65
2023-03-18T10:15:37.435Z,7.24
2023-03-18T10:20:54.052Z,7.30
2023-03-18T10:26:02.996Z,6.98
2023-03-18T10:31:18.601Z,6.43
2023-03-18T10:36:29.685Z,6.55
2023-03-18T10:41:36.248Z,6.76
2023-03-18T10:46:39.901Z,6.69
2023-03-18T10:51:51.289Z,6.58
2023-03-18T10:56:54.750Z,6.55
2023-03-18T11:02:04.688Z,6.29
2023-03-18T11:07:17.372Z,6.69
2023-03-18T11:12:26.055Z,6.36
2023-03-18T11:17:33.437Z,6.15
2023-03-18T11:22:39.170Z,6.23
2023-03-18T11:27:44.355Z,6.41
2023-03-18T11:32:56.866Z,6.41
2023-03-18T11:38:04.493Z,6.61
2023-03-18T11:43:21.664Z,6.09
2023-03-18T11:48:31.597Z,6.10
2023-03-18T11:53:48.948Z,6.33
2023-03-18T11:59:09.680Z,6.40
2023-03-18T12:04:45.311Z,6.79
2023-03-18T12:09:57.127Z,6.70
2023-03-18T12:15:10.290Z,6.59
2023-03-18T12:20:33.879Z,6.62
2023-03-18T12:26:08.662Z,6.55
2023-03-18T12:31:42.933Z,6.12
2023-03-18T12:37:02.582Z,6.15
2023-03-18T12:42:13.566Z,6.58
2023-03-18T12:47:22.694Z,6.45
2023-03-18T12:52:32.909Z,6.36
2023-03-18T12:57:45.419Z,6.31
2023-03-18T13:02:57.374Z,6.37
2023-03-18T13:08:28.974Z,6.33
2023-03-18T13:13:37.353Z,6.23
2023-03-18T13:18:44.516Z,6.13
2023-03-18T13:24:17.985Z,6.06
2023-03-18T13:29:35.243Z,6.02
2023-03-18T13:35:07.023Z,6.03
2023-03-18T13:40:29.504Z,6.10
2023-03-18T13:45:39.309Z,5.92
2023-03-18T13:50:44.506Z,5.81
2023-03-18T13:55:50.657Z,5.78
2023-03-18T14:01:15.550Z,5.77
2023-03-18T14:06:26.664Z,5.53
2023-03-18T14:11:50.414Z,5.54
2023-03-18T14:16:58.099Z,5.52
2023-03-18T14:22:09.697Z,5.43
2023-03-18T14:27:20.565Z,5.33
2023-03-18T14:32:41.133Z,5.27
2023-03-18T14:38:03.763Z,5.14
2023-03-18T14:43:11.736Z,5.06
2023-03-18T14:48:21.644Z,5.13
2023-03-18T14:53:30.640Z,4.96
2023-03-18T14:58:36.013Z,4.78
2023-03-18T15:03:44.901Z,4.65
2023-03-18T15:08:54.184Z,4.54
2023-03-18T15:14:00.245Z,4.51
2023-03-18T15:19:05.422Z,4.37
2023-03-18T15:24:09.628Z,4.21
2023-03-18T15:29:26.926Z,4.13
2023-03-18T15:34:34.485Z,3.93
2023-03-18T15:39:40.037Z,3.68
2023-03-18T15:44:45.897Z,3.66
2023-03-18T15:49:55.884Z,3.55
2023-03-18T15:54:59.430Z,3.33
2023-03-18T16:00:04.617Z,3.14
2023-03-18T16:05:17.364Z,3.00
2023-03-18T16:10:23.171Z,2.77
2023-03-18T16:15:28.144Z,2.61
2023-03-18T16:20:33.476Z,2.50
2023-03-18T16:25:37.030Z,2.34
2023-03-18T16:30:41.652Z,2.22
2023-03-18T16:35:47.643Z,2.14
2023-03-18T16:40:53.870Z,2.06
2023-03-18T16:46:00.761Z,1.98
2023-03-18T16:51:06.108Z,1.92
2023-03-18T16:56:16.978Z,1.76
2023-03-18T17:01:21.209Z,1.60
2023-03-18T17:06:26.636Z,1.40
2023-03-18T17:11:29.982Z,1.16
2023-03-18T17:16:34.212Z,1.06
2023-03-18T17:21:39.618Z,1.07
2023-03-18T17:26:43.382Z,1.04
2023-03-18T17:31:46.738Z,1.02
2023-03-18T17:36:51.568Z,1.02
2023-03-18T17:41:55.262Z,0.96
2023-03-18T17:46:58.734Z,0.96
2023-03-18T17:52:03.622Z,0.83
2023-03-18T17:57:07.375Z,0.76
2023-03-18T18:02:14.861Z,0.86
2023-03-18T18:07:21.911Z,0.87
2023-03-18T18:12:26.200Z,0.90
2023-03-18T18:17:29.756Z,0.86
2023-03-18T18:22:34.691Z,0.86
2023-03-18T18:27:37.886Z,0.82
2023-03-18T18:32:41.533Z,0.71
2023-03-18T18:37:47.659Z,0.67
2023-03-18T18:42:51.077Z,0.65
2023-03-18T18:47:54.815Z,0.61
2023-03-18T18:53:00.741Z,0.56
2023-03-18T18:58:04.482Z,0.44
2023-03-18T19:03:14.375Z,0.23
2023-03-18T19:08:25.421Z,0.04
2023-03-18T19:13:31.030Z,-0.09
2023-03-18T19:18:39.017Z,-0.25
2023-03-18T19:23:44.014Z,-0.26
2023-03-18T19:29:01.546Z,-0.26
2023-03-18T19:34:15.369Z,-0.29
2023-03-18T19:39:22.126Z,-0.36
2023-03-18T19:44:26.862Z,-0.45
2023-03-18T19:49:33.806Z,-0.54
2023-03-18T19:54:38.891Z,-0.59
2023-03-18T19:59:42.370Z,-0.64
2023-03-18T20:04:45.720Z,-0.76
2023-03-18T20:09:50.895Z,-0.76
2023-03-18T20:14:54.462Z,-0.77
2023-03-18T20:19:58.801Z,-0.80
2023-03-18T20:25:05.130Z,-0.84
2023-03-18T20:30:23.286Z,-0.79
2023-03-18T20:35:29.016Z,-0.87
2023-03-18T20:40:34.316Z,-0.80
2023-03-18T20:45:37.697Z,-0.85
2023-03-18T20:50:41.370Z,-0.85
2023-03-18T20:55:47.039Z,-0.87
2023-03-18T21:00:50.891Z,-0.96
2023-03-18T21:05:56.871Z,-1.05
2023-03-18T21:11:02.490Z,-1.08
2023-03-18T21:16:08.188Z,-1.10
2023-03-18T21:21:20.642Z,-1.08
2023-03-18T21:26:25.511Z,-1.05
2023-03-18T21:31:31.413Z,-1.15
2023-03-18T21:36:34.821Z,-1.21
2023-03-18T21:41:39.759Z,-1.22
2023-03-18T21:46:42.859Z,-1.27
2023-03-18T21:51:46.756Z,-1.32
2023-03-18T21:56:51.548Z,-1.31
2023-03-18T22:01:54.992Z,-1.34
2023-03-18T22:06:58.529Z,-1.35
2023-03-18T22:12:03.366Z,-1.37
2023-03-18T22:17:12.088Z,-1.45
2023-03-18T22:22:17.331Z,-1.45
2023-03-18T22:27:24.290Z,-1.48
2023-03-18T22:32:38.698Z,-1.50
2023-03-18T22:37:42.603Z,-1.55
2023-03-18T22:42:48.640Z,-1.50
2023-03-18T22:47:52.731Z,-1.73
2023-03-18T22:53:01.263Z,-1.66
2023-03-18T22:58:06.750Z,-1.72
2023-03-18T23:03:13.019Z,-1.81
2023-03-18T23:08:17.425Z,-1.83
2023-03-18T23:13:28.153Z,-1.89
2023-03-18T23:18:31.645Z,-2.03
2023-03-18T23:23:35.060Z,-2.13
2023-03-18T23:28:44.855Z,-2.19
2023-03-18T23:33:48.826Z,-2.25
2023-03-18T23:38:52.561Z,-2.28
2023-03-18T23:43:57.392Z,-2.26
2023-03-18T23:49:00.725Z,-2.33
2023-03-18T23:54:04.109Z,-2.51
2023-03-18T23:59:08.984Z,-2.63
